sensor_id;sensor_type;location;lat;lon;timestamp;P1;durP1;ratioP1;P2;durP2;ratioP2
67065;SDS011;53978;43.846;25.952;2023-07-13T00:00:41;11.85;;;7.45;;
67065;SDS011;53978;43.846;25.952;2023-07-13T00:03:07;13.52;;;7.75;;
67065;SDS011;53978;43.846;25.952;2023-07-13T00:05:33;11.43;;;7.13;;
67065;SDS011;53978;43.846;25.952;2023-07-13T00:07:58;10.00;;;7.47;;
67065;SDS011;53978;43.846;25.952;2023-07-13T00:10:24;12.18;;;7.68;;
67065;SDS011;53978;43.846;25.952;2023-07-13T00:12:49;13.60;;;7.55;;
67065;SDS011;53978;43.846;25.952;2023-07-13T00:15:20;12.73;;;7.18;;
67065;SDS011;53978;43.846;25.952;2023-07-13T00:17:47;11.88;;;7.25;;
67065;SDS011;53978;43.846;25.952;2023-07-13T00:20:13;14.48;;;6.82;;
67065;SDS011;53978;43.846;25.952;2023-07-13T00:22:39;12.52;;;7.85;;
67065;SDS011;53978;43.846;25.952;2023-07-13T00:25:04;14.38;;;7.60;;
67065;SDS011;53978;43.846;25.952;2023-07-13T00:27:30;10.82;;;7.43;;
67065;SDS011;53978;43.846;25.952;2023-07-13T00:29:56;14.32;;;7.80;;
67065;SDS011;53978;43.846;25.952;2023-07-13T00:32:22;10.43;;;7.47;;
67065;SDS011;53978;43.846;25.952;2023-07-13T00:34:50;10.27;;;7.03;;
67065;SDS011;53978;43.846;25.952;2023-07-13T00:37:15;10.32;;;7.32;;
67065;SDS011;53978;43.846;25.952;2023-07-13T00:39:41;13.40;;;7.32;;
67065;SDS011;53978;43.846;25.952;2023-07-13T00:42:06;10.40;;;7.72;;
67065;SDS011;53978;43.846;25.952;2023-07-13T00:44:31;12.38;;;8.10;;
67065;SDS011;53978;43.846;25.952;2023-07-13T00:46:57;16.00;;;8.43;;
67065;SDS011;53978;43.846;25.952;2023-07-13T00:49:24;9.68;;;7.63;;
67065;SDS011;53978;43.846;25.952;2023-07-13T00:52:04;10.90;;;7.93;;
67065;SDS011;53978;43.846;25.952;2023-07-13T00:54:41;13.25;;;8.27;;
67065;SDS011;53978;43.846;25.952;2023-07-13T00:57:11;12.00;;;7.85;;
67065;SDS011;53978;43.846;25.952;2023-07-13T00:59:38;11.57;;;8.13;;
67065;SDS011;53978;43.846;25.952;2023-07-13T01:02:05;11.02;;;7.57;;
67065;SDS011;53978;43.846;25.952;2023-07-13T01:04:30;14.23;;;7.88;;
67065;SDS011;53978;43.846;25.952;2023-07-13T01:06:56;12.48;;;7.65;;
67065;SDS011;53978;43.846;25.952;2023-07-13T01:09:22;11.55;;;7.38;;
67065;SDS011;53978;43.846;25.952;2023-07-13T01:11:48;11.00;;;7.95;;
67065;SDS011;53978;43.846;25.952;2023-07-13T01:14:13;10.15;;;6.97;;
67065;SDS011;53978;43.846;25.952;2023-07-13T01:16:39;8.52;;;7.50;;
67065;SDS011;53978;43.846;25.952;2023-07-13T01:19:15;11.27;;;7.55;;
67065;SDS011;53978;43.846;25.952;2023-07-13T01:22:11;11.02;;;7.20;;
67065;SDS011;53978;43.846;25.952;2023-07-13T01:24:38;14.65;;;7.28;;
67065;SDS011;53978;43.846;25.952;2023-07-13T01:27:06;12.18;;;7.40;;
67065;SDS011;53978;43.846;25.952;2023-07-13T01:29:33;9.73;;;7.05;;
67065;SDS011;53978;43.846;25.952;2023-07-13T01:31:59;11.30;;;7.22;;
67065;SDS011;53978;43.846;25.952;2023-07-13T01:34:25;10.63;;;7.65;;
67065;SDS011;53978;43.846;25.952;2023-07-13T01:36:51;13.77;;;8.10;;
67065;SDS011;53978;43.846;25.952;2023-07-13T01:39:19;8.70;;;7.28;;
67065;SDS011;53978;43.846;25.952;2023-07-13T01:41:47;11.48;;;7.60;;
67065;SDS011;53978;43.846;25.952;2023-07-13T01:44:13;11.27;;;7.63;;
67065;SDS011;53978;43.846;25.952;2023-07-13T01:46:38;11.45;;;7.85;;
67065;SDS011;53978;43.846;25.952;2023-07-13T01:49:04;15.07;;;8.20;;
67065;SDS011;53978;43.846;25.952;2023-07-13T01:51:29;10.07;;;7.90;;
67065;SDS011;53978;43.846;25.952;2023-07-13T01:53:55;9.50;;;7.53;;
67065;SDS011;53978;43.846;25.952;2023-07-13T01:56:20;9.73;;;7.43;;
67065;SDS011;53978;43.846;25.952;2023-07-13T01:58:46;14.38;;;8.75;;
67065;SDS011;53978;43.846;25.952;2023-07-13T02:01:12;15.63;;;7.57;;
67065;SDS011;53978;43.846;25.952;2023-07-13T02:03:37;12.55;;;8.77;;
67065;SDS011;53978;43.846;25.952;2023-07-13T02:06:02;12.32;;;8.40;;
67065;SDS011;53978;43.846;25.952;2023-07-13T02:08:28;13.55;;;7.95;;
67065;SDS011;53978;43.846;25.952;2023-07-13T02:10:54;11.93;;;8.50;;
67065;SDS011;53978;43.846;25.952;2023-07-13T02:13:19;14.30;;;7.88;;
67065;SDS011;53978;43.846;25.952;2023-07-13T02:15:44;9.38;;;7.63;;
67065;SDS011;53978;43.846;25.952;2023-07-13T02:18:10;11.45;;;7.32;;
67065;SDS011;53978;43.846;25.952;2023-07-13T02:20:35;10.32;;;7.95;;
67065;SDS011;53978;43.846;25.952;2023-07-13T02:23:00;13.07;;;7.68;;
67065;SDS011;53978;43.846;25.952;2023-07-13T02:25:26;13.20;;;7.63;;
67065;SDS011;53978;43.846;25.952;2023-07-13T02:27:52;17.77;;;7.88;;
67065;SDS011;53978;43.846;25.952;2023-07-13T02:30:17;13.35;;;7.10;;
67065;SDS011;53978;43.846;25.952;2023-07-13T02:32:43;11.20;;;7.18;;
67065;SDS011;53978;43.846;25.952;2023-07-13T02:35:09;12.32;;;8.00;;
67065;SDS011;53978;43.846;25.952;2023-07-13T02:37:35;11.30;;;7.68;;
67065;SDS011;53978;43.846;25.952;2023-07-13T02:40:02;13.73;;;7.97;;
67065;SDS011;53978;43.846;25.952;2023-07-13T02:42:33;14.55;;;7.88;;
67065;SDS011;53978;43.846;25.952;2023-07-13T02:44:58;9.93;;;7.80;;
67065;SDS011;53978;43.846;25.952;2023-07-13T02:47:24;10.48;;;7.70;;
67065;SDS011;53978;43.846;25.952;2023-07-13T02:49:49;13.13;;;7.28;;
67065;SDS011;53978;43.846;25.952;2023-07-13T02:52:15;11.45;;;7.60;;
67065;SDS011;53978;43.846;25.952;2023-07-13T02:54:40;14.48;;;8.40;;
67065;SDS011;53978;43.846;25.952;2023-07-13T02:57:06;11.48;;;8.50;;
67065;SDS011;53978;43.846;25.952;2023-07-13T02:59:31;12.57;;;8.05;;
67065;SDS011;53978;43.846;25.952;2023-07-13T03:01:57;12.98;;;7.72;;
67065;SDS011;53978;43.846;25.952;2023-07-13T03:04:22;9.95;;;7.07;;
67065;SDS011;53978;43.846;25.952;2023-07-13T03:06:48;10.18;;;7.63;;
67065;SDS011;53978;43.846;25.952;2023-07-13T03:09:13;32.75;;;9.35;;
67065;SDS011;53978;43.846;25.952;2023-07-13T03:11:39;15.38;;;8.98;;
67065;SDS011;53978;43.846;25.952;2023-07-13T03:14:04;12.55;;;7.95;;
67065;SDS011;53978;43.846;25.952;2023-07-13T03:16:30;13.27;;;7.28;;
67065;SDS011;53978;43.846;25.952;2023-07-13T03:18:55;14.05;;;8.15;;
67065;SDS011;53978;43.846;25.952;2023-07-13T03:21:21;10.98;;;7.57;;
67065;SDS011;53978;43.846;25.952;2023-07-13T03:23:46;15.50;;;7.40;;
67065;SDS011;53978;43.846;25.952;2023-07-13T03:26:16;12.27;;;7.72;;
67065;SDS011;53978;43.846;25.952;2023-07-13T03:28:43;15.00;;;7.97;;
67065;SDS011;53978;43.846;25.952;2023-07-13T03:31:10;15.73;;;8.05;;
67065;SDS011;53978;43.846;25.952;2023-07-13T03:33:37;14.30;;;7.82;;
67065;SDS011;53978;43.846;25.952;2023-07-13T03:36:03;15.95;;;7.70;;
67065;SDS011;53978;43.846;25.952;2023-07-13T03:38:29;13.48;;;7.85;;
67065;SDS011;53978;43.846;25.952;2023-07-13T03:40:55;10.00;;;7.80;;
67065;SDS011;53978;43.846;25.952;2023-07-13T03:43:20;47.60;;;11.93;;
67065;SDS011;53978;43.846;25.952;2023-07-13T03:45:46;38.38;;;11.85;;
67065;SDS011;53978;43.846;25.952;2023-07-13T03:48:12;23.35;;;9.15;;
67065;SDS011;53978;43.846;25.952;2023-07-13T03:50:38;15.38;;;7.88;;
67065;SDS011;53978;43.846;25.952;2023-07-13T03:53:03;17.50;;;7.97;;
67065;SDS011;53978;43.846;25.952;2023-07-13T03:55:29;13.82;;;7.22;;
67065;SDS011;53978;43.846;25.952;2023-07-13T03:57:59;14.15;;;7.72;;
67065;SDS011;53978;43.846;25.952;2023-07-13T04:00:25;15.48;;;7.60;;
67065;SDS011;53978;43.846;25.952;2023-07-13T04:02:51;18.60;;;8.45;;
67065;SDS011;53978;43.846;25.952;2023-07-13T04:05:17;68.22;;;12.93;;
67065;SDS011;53978;43.846;25.952;2023-07-13T04:07:42;24.10;;;9.10;;
67065;SDS011;53978;43.846;25.952;2023-07-13T04:10:08;26.83;;;9.02;;
67065;SDS011;53978;43.846;25.952;2023-07-13T04:12:34;14.32;;;7.57;;
67065;SDS011;53978;43.846;25.952;2023-07-13T04:14:59;14.93;;;7.50;;
67065;SDS011;53978;43.846;25.952;2023-07-13T04:17:24;20.98;;;7.72;;
67065;SDS011;53978;43.846;25.952;2023-07-13T04:19:50;14.27;;;8.05;;
67065;SDS011;53978;43.846;25.952;2023-07-13T04:22:15;14.55;;;7.60;;
67065;SDS011;53978;43.846;25.952;2023-07-13T04:24:41;27.35;;;7.78;;
67065;SDS011;53978;43.846;25.952;2023-07-13T04:27:06;11.57;;;7.32;;
67065;SDS011;53978;43.846;25.952;2023-07-13T04:29:32;39.70;;;8.70;;
67065;SDS011;53978;43.846;25.952;2023-07-13T04:31:58;27.85;;;8.52;;
67065;SDS011;53978;43.846;25.952;2023-07-13T04:34:23;16.25;;;8.35;;
67065;SDS011;53978;43.846;25.952;2023-07-13T04:36:49;23.77;;;7.57;;
67065;SDS011;53978;43.846;25.952;2023-07-13T04:39:14;22.50;;;7.95;;
67065;SDS011;53978;43.846;25.952;2023-07-13T04:41:40;11.90;;;7.15;;
67065;SDS011;53978;43.846;25.952;2023-07-13T04:44:05;19.30;;;8.00;;
67065;SDS011;53978;43.846;25.952;2023-07-13T04:46:31;16.23;;;7.53;;
67065;SDS011;53978;43.846;25.952;2023-07-13T04:48:56;15.93;;;7.45;;
67065;SDS011;53978;43.846;25.952;2023-07-13T04:51:23;22.83;;;7.47;;
67065;SDS011;53978;43.846;25.952;2023-07-13T04:53:51;16.55;;;7.70;;
67065;SDS011;53978;43.846;25.952;2023-07-13T04:56:17;23.35;;;7.97;;
67065;SDS011;53978;43.846;25.952;2023-07-13T04:58:42;23.75;;;8.15;;
67065;SDS011;53978;43.846;25.952;2023-07-13T05:01:09;59.33;;;9.57;;
67065;SDS011;53978;43.846;25.952;2023-07-13T05:03:34;16.77;;;7.88;;
67065;SDS011;53978;43.846;25.952;2023-07-13T05:06:01;13.50;;;7.80;;
67065;SDS011;53978;43.846;25.952;2023-07-13T05:08:27;19.70;;;8.25;;
67065;SDS011;53978;43.846;25.952;2023-07-13T05:10:53;29.95;;;8.55;;
67065;SDS011;53978;43.846;25.952;2023-07-13T05:13:18;25.13;;;8.45;;
67065;SDS011;53978;43.846;25.952;2023-07-13T05:15:44;17.63;;;7.72;;
67065;SDS011;53978;43.846;25.952;2023-07-13T05:18:10;21.60;;;7.75;;
67065;SDS011;53978;43.846;25.952;2023-07-13T05:20:35;12.80;;;7.85;;
67065;SDS011;53978;43.846;25.952;2023-07-13T05:23:01;23.02;;;8.15;;
67065;SDS011;53978;43.846;25.952;2023-07-13T05:25:26;16.80;;;8.18;;
67065;SDS011;53978;43.846;25.952;2023-07-13T05:27:52;17.85;;;7.88;;
67065;SDS011;53978;43.846;25.952;2023-07-13T05:30:17;13.13;;;7.05;;
67065;SDS011;53978;43.846;25.952;2023-07-13T05:32:42;15.52;;;7.72;;
67065;SDS011;53978;43.846;25.952;2023-07-13T05:35:08;19.85;;;8.57;;
67065;SDS011;53978;43.846;25.952;2023-07-13T05:37:33;15.18;;;7.85;;
67065;SDS011;53978;43.846;25.952;2023-07-13T05:39:59;12.75;;;7.65;;
67065;SDS011;53978;43.846;25.952;2023-07-13T05:42:24;19.13;;;8.00;;
67065;SDS011;53978;43.846;25.952;2023-07-13T05:44:50;14.32;;;7.47;;
67065;SDS011;53978;43.846;25.952;2023-07-13T05:47:15;13.88;;;7.68;;
67065;SDS011;53978;43.846;25.952;2023-07-13T05:49:41;15.18;;;7.97;;
67065;SDS011;53978;43.846;25.952;2023-07-13T05:52:06;18.50;;;8.00;;
67065;SDS011;53978;43.846;25.952;2023-07-13T05:54:32;17.85;;;8.23;;
67065;SDS011;53978;43.846;25.952;2023-07-13T05:56:57;16.75;;;8.18;;
67065;SDS011;53978;43.846;25.952;2023-07-13T05:59:23;16.77;;;7.47;;
67065;SDS011;53978;43.846;25.952;2023-07-13T06:01:48;14.52;;;7.53;;
67065;SDS011;53978;43.846;25.952;2023-07-13T06:04:14;9.40;;;7.57;;
67065;SDS011;53978;43.846;25.952;2023-07-13T06:06:39;14.20;;;7.13;;
67065;SDS011;53978;43.846;25.952;2023-07-13T06:09:05;12.35;;;7.07;;
67065;SDS011;53978;43.846;25.952;2023-07-13T06:11:30;10.65;;;7.38;;
67065;SDS011;53978;43.846;25.952;2023-07-13T06:13:56;15.20;;;7.28;;
67065;SDS011;53978;43.846;25.952;2023-07-13T06:16:21;13.32;;;6.97;;
67065;SDS011;53978;43.846;25.952;2023-07-13T06:18:47;14.82;;;7.30;;
67065;SDS011;53978;43.846;25.952;2023-07-13T06:21:14;13.00;;;7.10;;
67065;SDS011;53978;43.846;25.952;2023-07-13T06:23:41;17.98;;;7.60;;
67065;SDS011;53978;43.846;25.952;2023-07-13T06:26:07;23.40;;;9.82;;
67065;SDS011;53978;43.846;25.952;2023-07-13T06:28:33;19.15;;;8.35;;
67065;SDS011;53978;43.846;25.952;2023-07-13T06:30:59;10.45;;;7.07;;
67065;SDS011;53978;43.846;25.952;2023-07-13T06:33:25;10.32;;;6.95;;
67065;SDS011;53978;43.846;25.952;2023-07-13T06:35:51;12.48;;;6.88;;
67065;SDS011;53978;43.846;25.952;2023-07-13T06:38:16;12.30;;;7.28;;
67065;SDS011;53978;43.846;25.952;2023-07-13T06:40:42;12.60;;;7.82;;
67065;SDS011;53978;43.846;25.952;2023-07-13T06:43:07;10.63;;;7.03;;
67065;SDS011;53978;43.846;25.952;2023-07-13T06:45:36;15.10;;;7.78;;
67065;SDS011;53978;43.846;25.952;2023-07-13T06:48:06;14.52;;;7.85;;
67065;SDS011;53978;43.846;25.952;2023-07-13T06:50:32;14.85;;;8.68;;
67065;SDS011;53978;43.846;25.952;2023-07-13T06:52:58;15.00;;;7.00;;
67065;SDS011;53978;43.846;25.952;2023-07-13T06:55:24;14.93;;;7.72;;
67065;SDS011;53978;43.846;25.952;2023-07-13T06:57:50;10.07;;;7.50;;
67065;SDS011;53978;43.846;25.952;2023-07-13T07:00:15;9.93;;;6.45;;
67065;SDS011;53978;43.846;25.952;2023-07-13T07:02:41;13.18;;;6.72;;
67065;SDS011;53978;43.846;25.952;2023-07-13T07:05:06;11.63;;;6.07;;
67065;SDS011;53978;43.846;25.952;2023-07-13T07:07:32;14.80;;;6.57;;
67065;SDS011;53978;43.846;25.952;2023-07-13T07:09:57;18.02;;;7.82;;
67065;SDS011;53978;43.846;25.952;2023-07-13T07:12:23;17.67;;;7.15;;
67065;SDS011;53978;43.846;25.952;2023-07-13T07:14:48;8.98;;;6.32;;
67065;SDS011;53978;43.846;25.952;2023-07-13T07:17:13;6.88;;;6.10;;
67065;SDS011;53978;43.846;25.952;2023-07-13T07:19:39;9.55;;;6.10;;
67065;SDS011;53978;43.846;25.952;2023-07-13T07:22:05;12.00;;;6.63;;
67065;SDS011;53978;43.846;25.952;2023-07-13T07:24:31;12.80;;;6.97;;
67065;SDS011;53978;43.846;25.952;2023-07-13T07:26:56;7.85;;;6.00;;
67065;SDS011;53978;43.846;25.952;2023-07-13T07:29:22;12.63;;;6.50;;
67065;SDS011;53978;43.846;25.952;2023-07-13T07:31:47;14.02;;;6.72;;
67065;SDS011;53978;43.846;25.952;2023-07-13T07:34:13;8.45;;;6.60;;
67065;SDS011;53978;43.846;25.952;2023-07-13T07:36:38;21.70;;;7.28;;
67065;SDS011;53978;43.846;25.952;2023-07-13T07:39:04;11.32;;;6.78;;
67065;SDS011;53978;43.846;25.952;2023-07-13T07:41:30;10.45;;;6.60;;
67065;SDS011;53978;43.846;25.952;2023-07-13T07:43:55;16.02;;;6.90;;
67065;SDS011;53978;43.846;25.952;2023-07-13T07:46:20;8.88;;;6.28;;
67065;SDS011;53978;43.846;25.952;2023-07-13T07:48:46;14.98;;;6.80;;
67065;SDS011;53978;43.846;25.952;2023-07-13T07:51:11;15.25;;;7.97;;
67065;SDS011;53978;43.846;25.952;2023-07-13T07:53:37;11.55;;;7.45;;
67065;SDS011;53978;43.846;25.952;2023-07-13T07:56:02;20.83;;;7.32;;
67065;SDS011;53978;43.846;25.952;2023-07-13T07:58:28;15.35;;;7.22;;
67065;SDS011;53978;43.846;25.952;2023-07-13T08:00:53;11.48;;;7.00;;
67065;SDS011;53978;43.846;25.952;2023-07-13T08:03:19;14.48;;;7.10;;
67065;SDS011;53978;43.846;25.952;2023-07-13T08:05:44;15.05;;;7.28;;
67065;SDS011;53978;43.846;25.952;2023-07-13T08:08:10;11.10;;;6.28;;
67065;SDS011;53978;43.846;25.952;2023-07-13T08:10:39;16.38;;;6.10;;
67065;SDS011;53978;43.846;25.952;2023-07-13T08:13:04;8.55;;;6.20;;
67065;SDS011;53978;43.846;25.952;2023-07-13T08:15:30;9.27;;;5.78;;
67065;SDS011;53978;43.846;25.952;2023-07-13T08:17:55;9.18;;;5.80;;
67065;SDS011;53978;43.846;25.952;2023-07-13T08:20:20;8.30;;;6.15;;
67065;SDS011;53978;43.846;25.952;2023-07-13T08:22:46;10.30;;;6.07;;
67065;SDS011;53978;43.846;25.952;2023-07-13T08:25:11;13.07;;;6.75;;
67065;SDS011;53978;43.846;25.952;2023-07-13T08:27:37;22.75;;;6.38;;
67065;SDS011;53978;43.846;25.952;2023-07-13T08:30:02;10.02;;;5.90;;
67065;SDS011;53978;43.846;25.952;2023-07-13T08:32:28;12.52;;;7.82;;
67065;SDS011;53978;43.846;25.952;2023-07-13T08:34:54;25.08;;;7.50;;
67065;SDS011;53978;43.846;25.952;2023-07-13T08:37:19;8.35;;;5.60;;
67065;SDS011;53978;43.846;25.952;2023-07-13T08:39:44;7.93;;;6.10;;
67065;SDS011;53978;43.846;25.952;2023-07-13T08:42:27;17.67;;;6.50;;
67065;SDS011;53978;43.846;25.952;2023-07-13T08:45:03;13.50;;;6.32;;
67065;SDS011;53978;43.846;25.952;2023-07-13T08:48:04;9.77;;;5.93;;
67065;SDS011;53978;43.846;25.952;2023-07-13T08:53:01;8.48;;;5.20;;
67065;SDS011;53978;43.846;25.952;2023-07-13T08:55:29;12.23;;;5.65;;
67065;SDS011;53978;43.846;25.952;2023-07-13T08:58:14;8.32;;;5.30;;
67065;SDS011;53978;43.846;25.952;2023-07-13T09:00:43;7.18;;;5.30;;
67065;SDS011;53978;43.846;25.952;2023-07-13T09:03:22;8.13;;;5.50;;
67065;SDS011;53978;43.846;25.952;2023-07-13T09:05:51;8.25;;;5.28;;
67065;SDS011;53978;43.846;25.952;2023-07-13T09:08:31;13.27;;;5.90;;
67065;SDS011;53978;43.846;25.952;2023-07-13T09:16:30;22.00;;;6.22;;
67065;SDS011;53978;43.846;25.952;2023-07-13T09:18:56;12.10;;;5.15;;
67065;SDS011;53978;43.846;25.952;2023-07-13T09:21:27;9.27;;;4.85;;
67065;SDS011;53978;43.846;25.952;2023-07-13T09:27:14;7.82;;;4.95;;
67065;SDS011;53978;43.846;25.952;2023-07-13T09:29:51;5.15;;;4.45;;
67065;SDS011;53978;43.846;25.952;2023-07-13T09:32:22;7.93;;;4.82;;
67065;SDS011;53978;43.846;25.952;2023-07-13T09:34:50;13.90;;;5.00;;
67065;SDS011;53978;43.846;25.952;2023-07-13T09:37:17;7.85;;;4.90;;
67065;SDS011;53978;43.846;25.952;2023-07-13T09:39:43;13.48;;;5.00;;
67065;SDS011;53978;43.846;25.952;2023-07-13T09:42:17;16.60;;;6.00;;
67065;SDS011;53978;43.846;25.952;2023-07-13T09:47:20;12.45;;;5.72;;
67065;SDS011;53978;43.846;25.952;2023-07-13T09:49:57;8.63;;;5.20;;
67065;SDS011;53978;43.846;25.952;2023-07-13T09:52:23;12.48;;;4.90;;
67065;SDS011;53978;43.846;25.952;2023-07-13T09:54:50;5.72;;;4.57;;
67065;SDS011;53978;43.846;25.952;2023-07-13T09:57:17;12.57;;;5.25;;
67065;SDS011;53978;43.846;25.952;2023-07-13T09:59:45;11.02;;;4.97;;
67065;SDS011;53978;43.846;25.952;2023-07-13T10:02:28;11.88;;;4.90;;
67065;SDS011;53978;43.846;25.952;2023-07-13T10:04:56;6.50;;;4.78;;
67065;SDS011;53978;43.846;25.952;2023-07-13T10:07:23;10.05;;;4.93;;
67065;SDS011;53978;43.846;25.952;2023-07-13T10:09:55;5.95;;;4.25;;
67065;SDS011;53978;43.846;25.952;2023-07-13T10:12:22;7.93;;;4.68;;
67065;SDS011;53978;43.846;25.952;2023-07-13T10:14:54;8.00;;;4.65;;
67065;SDS011;53978;43.846;25.952;2023-07-13T10:17:24;22.85;;;4.80;;
67065;SDS011;53978;43.846;25.952;2023-07-13T10:19:55;12.88;;;4.70;;
67065;SDS011;53978;43.846;25.952;2023-07-13T10:22:36;9.23;;;4.47;;
67065;SDS011;53978;43.846;25.952;2023-07-13T10:25:14;7.45;;;4.25;;
67065;SDS011;53978;43.846;25.952;2023-07-13T10:27:43;5.80;;;3.97;;
67065;SDS011;53978;43.846;25.952;2023-07-13T10:32:45;10.27;;;4.97;;
67065;SDS011;53978;43.846;25.952;2023-07-13T10:35:12;9.00;;;4.90;;
67065;SDS011;53978;43.846;25.952;2023-07-13T10:37:45;9.48;;;4.65;;
67065;SDS011;53978;43.846;25.952;2023-07-13T10:40:16;7.90;;;4.50;;
67065;SDS011;53978;43.846;25.952;2023-07-13T10:42:46;5.90;;;4.38;;
67065;SDS011;53978;43.846;25.952;2023-07-13T10:45:13;7.15;;;4.32;;
67065;SDS011;53978;43.846;25.952;2023-07-13T10:47:40;6.57;;;4.57;;
67065;SDS011;53978;43.846;25.952;2023-07-13T10:50:06;18.83;;;6.57;;
67065;SDS011;53978;43.846;25.952;2023-07-13T10:55:37;7.00;;;4.10;;
67065;SDS011;53978;43.846;25.952;2023-07-13T10:58:19;8.40;;;4.30;;
67065;SDS011;53978;43.846;25.952;2023-07-13T11:01:08;8.32;;;5.10;;
67065;SDS011;53978;43.846;25.952;2023-07-13T11:09:03;10.15;;;4.20;;
67065;SDS011;53978;43.846;25.952;2023-07-13T11:11:44;10.30;;;4.57;;
67065;SDS011;53978;43.846;25.952;2023-07-13T11:14:26;10.73;;;4.57;;
67065;SDS011;53978;43.846;25.952;2023-07-13T11:16:56;17.88;;;5.05;;
67065;SDS011;53978;43.846;25.952;2023-07-13T11:24:48;8.48;;;3.80;;
67065;SDS011;53978;43.846;25.952;2023-07-13T11:27:22;15.18;;;4.05;;
67065;SDS011;53978;43.846;25.952;2023-07-13T11:30:08;10.25;;;3.63;;
67065;SDS011;53978;43.846;25.952;2023-07-13T11:32:49;12.98;;;3.97;;
67065;SDS011;53978;43.846;25.952;2023-07-13T11:35:18;6.75;;;3.55;;
67065;SDS011;53978;43.846;25.952;2023-07-13T11:37:48;7.13;;;3.70;;
67065;SDS011;53978;43.846;25.952;2023-07-13T11:40:14;9.02;;;3.80;;
67065;SDS011;53978;43.846;25.952;2023-07-13T11:42:40;12.55;;;4.40;;
67065;SDS011;53978;43.846;25.952;2023-07-13T11:45:14;16.27;;;4.25;;
67065;SDS011;53978;43.846;25.952;2023-07-13T11:47:45;9.75;;;3.90;;
67065;SDS011;53978;43.846;25.952;2023-07-13T11:50:20;7.40;;;3.70;;
67065;SDS011;53978;43.846;25.952;2023-07-13T11:52:46;5.05;;;3.35;;
67065;SDS011;53978;43.846;25.952;2023-07-13T11:55:16;6.63;;;3.88;;
67065;SDS011;53978;43.846;25.952;2023-07-13T11:57:47;8.05;;;3.45;;
67065;SDS011;53978;43.846;25.952;2023-07-13T12:00:26;11.07;;;4.30;;
67065;SDS011;53978;43.846;25.952;2023-07-13T12:02:58;7.90;;;3.83;;
67065;SDS011;53978;43.846;25.952;2023-07-13T12:05:25;11.90;;;3.40;;
67065;SDS011;53978;43.846;25.952;2023-07-13T12:07:51;6.07;;;3.50;;
67065;SDS011;53978;43.846;25.952;2023-07-13T12:12:53;6.68;;;3.60;;
67065;SDS011;53978;43.846;25.952;2023-07-13T12:15:23;8.18;;;3.90;;
67065;SDS011;53978;43.846;25.952;2023-07-13T12:17:52;11.05;;;3.88;;
67065;SDS011;53978;43.846;25.952;2023-07-13T12:22:47;9.02;;;3.40;;
67065;SDS011;53978;43.846;25.952;2023-07-13T12:25:13;10.40;;;3.72;;
67065;SDS011;53978;43.846;25.952;2023-07-13T12:27:40;12.70;;;3.72;;
67065;SDS011;53978;43.846;25.952;2023-07-13T12:30:23;7.47;;;3.50;;
67065;SDS011;53978;43.846;25.952;2023-07-13T12:33:06;8.50;;;3.43;;
67065;SDS011;53978;43.846;25.952;2023-07-13T12:35:46;9.10;;;3.30;;
67065;SDS011;53978;43.846;25.952;2023-07-13T12:38:13;14.48;;;3.83;;
67065;SDS011;53978;43.846;25.952;2023-07-13T12:40:39;8.00;;;3.35;;
67065;SDS011;53978;43.846;25.952;2023-07-13T12:43:09;10.13;;;3.40;;
67065;SDS011;53978;43.846;25.952;2023-07-13T12:45:37;6.50;;;2.90;;
67065;SDS011;53978;43.846;25.952;2023-07-13T12:48:10;13.32;;;3.13;;
67065;SDS011;53978;43.846;25.952;2023-07-13T12:50:40;10.10;;;3.45;;
67065;SDS011;53978;43.846;25.952;2023-07-13T12:53:14;11.20;;;3.00;;
67065;SDS011;53978;43.846;25.952;2023-07-13T12:55:47;28.45;;;3.60;;
67065;SDS011;53978;43.846;25.952;2023-07-13T12:58:21;10.25;;;3.05;;
67065;SDS011;53978;43.846;25.952;2023-07-13T13:00:50;9.73;;;3.33;;
67065;SDS011;53978;43.846;25.952;2023-07-13T13:06:18;11.50;;;3.40;;
67065;SDS011;53978;43.846;25.952;2023-07-13T13:08:49;8.15;;;2.95;;
67065;SDS011;53978;43.846;25.952;2023-07-13T13:11:16;11.57;;;3.28;;
67065;SDS011;53978;43.846;25.952;2023-07-13T13:13:43;11.40;;;3.00;;
67065;SDS011;53978;43.846;25.952;2023-07-13T13:16:10;8.65;;;2.85;;
67065;SDS011;53978;43.846;25.952;2023-07-13T13:18:44;12.57;;;3.45;;
67065;SDS011;53978;43.846;25.952;2023-07-13T13:21:10;8.75;;;3.70;;
67065;SDS011;53978;43.846;25.952;2023-07-13T13:23:36;7.85;;;3.20;;
67065;SDS011;53978;43.846;25.952;2023-07-13T13:26:07;12.15;;;3.42;;
67065;SDS011;53978;43.846;25.952;2023-07-13T13:28:35;8.50;;;3.08;;
67065;SDS011;53978;43.846;25.952;2023-07-13T13:31:00;5.43;;;3.30;;
67065;SDS011;53978;43.846;25.952;2023-07-13T13:33:26;10.65;;;3.97;;
67065;SDS011;53978;43.846;25.952;2023-07-13T13:35:51;5.90;;;3.13;;
67065;SDS011;53978;43.846;25.952;2023-07-13T13:38:17;6.80;;;3.40;;
67065;SDS011;53978;43.846;25.952;2023-07-13T13:40:45;10.48;;;3.45;;
67065;SDS011;53978;43.846;25.952;2023-07-13T13:43:18;7.28;;;3.50;;
67065;SDS011;53978;43.846;25.952;2023-07-13T13:45:45;9.20;;;3.58;;
67065;SDS011;53978;43.846;25.952;2023-07-13T13:48:18;8.18;;;3.70;;
67065;SDS011;53978;43.846;25.952;2023-07-13T13:50:46;6.78;;;3.33;;
67065;SDS011;53978;43.846;25.952;2023-07-13T13:53:13;10.25;;;3.42;;
67065;SDS011;53978;43.846;25.952;2023-07-13T13:55:39;10.15;;;3.90;;
67065;SDS011;53978;43.846;25.952;2023-07-13T13:58:09;10.63;;;3.80;;
67065;SDS011;53978;43.846;25.952;2023-07-13T14:00:36;7.10;;;3.60;;
67065;SDS011;53978;43.846;25.952;2023-07-13T14:03:03;5.13;;;3.10;;
67065;SDS011;53978;43.846;25.952;2023-07-13T14:05:29;9.63;;;3.50;;
67065;SDS011;53978;43.846;25.952;2023-07-13T14:07:55;12.32;;;3.50;;
67065;SDS011;53978;43.846;25.952;2023-07-13T14:10:22;8.88;;;3.65;;
67065;SDS011;53978;43.846;25.952;2023-07-13T14:12:48;6.93;;;3.40;;
67065;SDS011;53978;43.846;25.952;2023-07-13T14:15:26;6.65;;;3.38;;
67065;SDS011;53978;43.846;25.952;2023-07-13T14:17:53;11.13;;;3.65;;
67065;SDS011;53978;43.846;25.952;2023-07-13T14:20:20;12.27;;;3.33;;
67065;SDS011;53978;43.846;25.952;2023-07-13T14:22:47;9.52;;;3.38;;
67065;SDS011;53978;43.846;25.952;2023-07-13T14:25:15;14.30;;;3.70;;
67065;SDS011;53978;43.846;25.952;2023-07-13T14:27:41;9.30;;;3.30;;
67065;SDS011;53978;43.846;25.952;2023-07-13T14:30:15;23.77;;;3.88;;
67065;SDS011;53978;43.846;25.952;2023-07-13T14:32:42;5.00;;;3.58;;
67065;SDS011;53978;43.846;25.952;2023-07-13T14:35:11;15.13;;;3.42;;
67065;SDS011;53978;43.846;25.952;2023-07-13T14:37:38;6.25;;;2.90;;
67065;SDS011;53978;43.846;25.952;2023-07-13T14:40:12;8.32;;;3.70;;
67065;SDS011;53978;43.846;25.952;2023-07-13T14:42:38;15.60;;;3.90;;
67065;SDS011;53978;43.846;25.952;2023-07-13T14:45:04;8.13;;;3.22;;
67065;SDS011;53978;43.846;25.952;2023-07-13T14:47:30;11.15;;;3.75;;
67065;SDS011;53978;43.846;25.952;2023-07-13T14:49:55;9.57;;;4.10;;
67065;SDS011;53978;43.846;25.952;2023-07-13T14:52:22;7.93;;;3.38;;
67065;SDS011;53978;43.846;25.952;2023-07-13T14:54:48;11.80;;;2.95;;
67065;SDS011;53978;43.846;25.952;2023-07-13T14:57:17;9.65;;;3.35;;
67065;SDS011;53978;43.846;25.952;2023-07-13T14:59:44;10.43;;;3.90;;
67065;SDS011;53978;43.846;25.952;2023-07-13T15:04:56;11.32;;;3.42;;
67065;SDS011;53978;43.846;25.952;2023-07-13T15:07:21;8.55;;;3.58;;
67065;SDS011;53978;43.846;25.952;2023-07-13T15:09:48;11.77;;;3.67;;